Time;durP1;ratioP1;P1;durP2;ratioP2;P2;SDS_P1;SDS_P2;PMS_P1;PMS_P2;Temp;Humidity;BMP_temperature;BMP_pressure;BME280_temperature;BME280_humidity;BME280_pressure;Samples;Min_cycle;Max_cycle;Signal;HPM_P1;HPM_P2
2024/01/09 00:00:14;;;;;;;15.70;10.47;;;-1.20;99.90;;;;;;5071185;28;20261;-67
2024/01/09 00:02:41;;;;;;;13.33;9.50;;;-1.30;99.90;;;;;;5077774;28;20201;-68
2024/01/09 00:05:09;;;;;;;15.27;9.90;;;-1.20;99.90;;;;;;5087584;28;20206;-67
2024/01/09 00:07:37;;;;;;;13.10;10.00;;;-1.00;99.90;;;;;;5090252;28;20224;-67
2024/01/09 00:10:05;;;;;;;12.80;7.97;;;-1.00;99.90;;;;;;5091123;28;20198;-68
2024/01/09 00:12:33;;;;;;;14.77;9.60;;;-1.20;99.90;;;;;;5091614;28;20730;-68
2024/01/09 00:14:59;;;;;;;14.10;9.37;;;-1.30;99.90;;;;;;5089821;28;20196;-68
2024/01/09 00:17:26;;;;;;;17.20;9.83;;;-0.90;99.90;;;;;;5083444;28;20241;-67
2024/01/09 00:19:53;;;;;;;13.80;10.00;;;-1.30;99.90;;;;;;5091304;28;20267;-67
2024/01/09 00:22:20;;;;;;;13.77;9.90;;;-1.20;99.90;;;;;;5089950;28;20209;-68
2024/01/09 00:24:49;;;;;;;18.13;9.53;;;-1.10;99.90;;;;;;5077854;28;20202;-67
2024/01/09 00:27:16;;;;;;;15.73;10.77;;;-1.10;99.90;;;;;;5081771;28;20244;-68
2024/01/09 00:29:43;;;;;;;15.43;8.97;;;-1.10;99.90;;;;;;5082880;28;20203;-67
2024/01/09 00:32:10;;;;;;;13.40;9.57;;;-0.90;99.90;;;;;;5091766;28;20209;-68
2024/01/09 00:34:37;;;;;;;11.33;8.30;;;-1.20;99.90;;;;;;5079697;28;20203;-67
2024/01/09 00:37:05;;;;;;;14.67;9.30;;;-1.10;99.90;;;;;;5087458;28;20275;-68
2024/01/09 00:39:32;;;;;;;12.27;9.87;;;-0.90;99.90;;;;;;5087678;28;20197;-69
2024/01/09 00:42:03;;;;;;;12.50;8.80;;;-0.80;99.90;;;;;;5079757;28;20194;-67
2024/01/09 00:44:30;;;;;;;14.70;9.40;;;-1.00;99.90;;;;;;5073303;28;20773;-68
2024/01/09 00:46:57;;;;;;;14.73;9.07;;;-0.90;99.90;;;;;;5075539;28;20223;-67
2024/01/09 00:49:24;;;;;;;13.87;9.03;;;-1.10;99.90;;;;;;5075401;28;20225;-67
2024/01/09 00:51:51;;;;;;;10.07;8.17;;;-1.20;99.90;;;;;;5081506;28;20209;-67
2024/01/09 00:54:19;;;;;;;13.90;9.17;;;-0.90;99.90;;;;;;5083578;28;20256;-68
2024/01/09 00:56:46;;;;;;;14.80;9.27;;;-1.20;99.90;;;;;;5074877;28;20195;-67
2024/01/09 00:59:14;;;;;;;11.53;9.33;;;-1.10;99.90;;;;;;5075147;28;20222;-68
2024/01/09 01:01:41;;;;;;;12.30;8.97;;;-1.00;99.90;;;;;;5074222;28;20272;-68
2024/01/09 01:04:08;;;;;;;11.10;8.33;;;-0.80;99.90;;;;;;5073170;28;20202;-69
2024/01/09 01:06:41;;;;;;;15.90;9.10;;;-0.90;99.90;;;;;;5092592;28;20217;-68
2024/01/09 01:09:08;;;;;;;11.57;8.73;;;-0.90;99.90;;;;;;5080079;28;20762;-67
2024/01/09 01:11:35;;;;;;;15.00;9.40;;;-1.10;99.90;;;;;;5075755;28;20201;-67
2024/01/09 01:14:02;;;;;;;13.27;8.90;;;-0.70;99.90;;;;;;5091122;28;20205;-68
2024/01/09 01:16:31;;;;;;;14.10;9.00;;;-1.00;99.90;;;;;;5086846;28;20195;-69
2024/01/09 01:18:58;;;;;;;14.07;9.20;;;-0.90;99.90;;;;;;5085261;28;20218;-67
2024/01/09 01:21:25;;;;;;;16.20;9.33;;;-0.70;99.90;;;;;;5082593;28;20195;-68
2024/01/09 01:23:52;;;;;;;12.60;10.07;;;-0.90;99.90;;;;;;5090339;28;20751;-67
2024/01/09 01:26:19;;;;;;;11.90;8.30;;;-0.70;99.90;;;;;;5075105;28;20220;-68
2024/01/09 01:28:46;;;;;;;15.47;9.63;;;-1.20;99.90;;;;;;5090836;28;20316;-67
2024/01/09 01:31:13;;;;;;;11.70;9.17;;;-1.10;99.90;;;;;;5082047;28;20195;-68
2024/01/09 01:33:41;;;;;;;11.30;8.53;;;-1.10;99.90;;;;;;5079586;28;20763;-67
2024/01/09 01:36:14;;;;;;;13.77;9.97;;;-1.20;99.90;;;;;;5079801;28;20197;-67
2024/01/09 01:38:41;;;;;;;12.70;8.90;;;-1.20;99.90;;;;;;5094864;28;20287;-68
2024/01/09 01:41:08;;;;;;;14.60;9.87;;;-1.00;99.90;;;;;;5092461;28;20310;-67
2024/01/09 01:43:35;;;;;;;12.87;9.30;;;-1.20;99.90;;;;;;5090856;28;20630;-68
2024/01/09 01:46:02;;;;;;;11.77;8.77;;;-1.00;99.90;;;;;;5079731;28;20747;-67
2024/01/09 01:48:30;;;;;;;15.63;10.47;;;-1.20;99.90;;;;;;5094488;28;20970;-68
2024/01/09 01:50:59;;;;;;;14.57;9.03;;;-0.80;99.90;;;;;;5092797;28;20201;-68
2024/01/09 01:53:28;;;;;;;13.57;8.83;;;-1.00;99.90;;;;;;5091357;28;20260;-68
2024/01/09 01:55:56;;;;;;;15.10;9.00;;;-1.20;99.90;;;;;;5081961;28;20204;-67
2024/01/09 01:58:24;;;;;;;12.03;8.97;;;-0.80;99.90;;;;;;5091201;28;20214;-67
2024/01/09 02:00:51;;;;;;;17.60;10.13;;;-0.80;99.90;;;;;;5093607;28;20233;-67
2024/01/09 02:03:19;;;;;;;17.33;9.83;;;-1.10;99.90;;;;;;5086395;28;20724;-68
2024/01/09 02:05:47;;;;;;;12.37;9.00;;;-1.00;99.90;;;;;;5075231;28;20204;-67
2024/01/09 02:08:17;;;;;;;13.07;8.77;;;-0.80;99.90;;;;;;5084380;28;20224;-68
2024/01/09 02:10:44;;;;;;;12.27;8.60;;;-1.10;99.90;;;;;;5080659;28;20245;-67
2024/01/09 02:13:11;;;;;;;13.30;9.00;;;-1.20;99.90;;;;;;5089674;28;20455;-67
2024/01/09 02:15:38;;;;;;;12.60;9.27;;;-1.00;99.90;;;;;;5075412;28;20677;-67
2024/01/09 02:18:06;;;;;;;15.80;9.53;;;-1.10;99.90;;;;;;5080863;28;22119;-67
2024/01/09 02:20:33;;;;;;;13.33;9.47;;;-1.10;99.90;;;;;;5082889;28;20205;-67
2024/01/09 02:23:00;;;;;;;14.93;10.23;;;-0.80;99.90;;;;;;5094068;28;20204;-68
2024/01/09 02:25:29;;;;;;;13.50;9.77;;;-1.10;99.90;;;;;;5077320;28;20207;-67
2024/01/09 02:28:04;;;;;;;14.30;9.33;;;-1.10;99.90;;;;;;5073697;28;20231;-68
2024/01/09 02:30:32;;;;;;;13.10;9.40;;;-1.10;99.90;;;;;;5075636;28;20261;-67
2024/01/09 02:33:00;;;;;;;12.03;8.73;;;-1.00;99.90;;;;;;5085319;28;20267;-67
2024/01/09 02:35:27;;;;;;;14.03;8.87;;;-0.90;99.90;;;;;;5077499;28;20253;-67
2024/01/09 02:37:54;;;;;;;17.67;10.30;;;-1.00;99.90;;;;;;5073175;28;20597;-67
2024/01/09 02:40:22;;;;;;;13.60;9.70;;;-1.30;99.90;;;;;;5072811;28;20633;-67
2024/01/09 02:42:49;;;;;;;17.60;10.20;;;-1.20;99.90;;;;;;5076095;28;20206;-67
2024/01/09 02:45:16;;;;;;;15.27;9.70;;;-1.20;99.90;;;;;;5087638;28;20202;-67
2024/01/09 02:47:45;;;;;;;15.83;10.53;;;-1.00;99.90;;;;;;5075600;28;20218;-67
2024/01/09 02:50:12;;;;;;;16.47;10.67;;;-1.10;99.90;;;;;;5081226;28;20263;-67
2024/01/09 02:52:39;;;;;;;17.00;10.37;;;-1.10;99.90;;;;;;5074880;28;20201;-67
2024/01/09 02:55:06;;;;;;;14.40;9.80;;;-1.00;99.90;;;;;;5074517;28;20254;-68
2024/01/09 02:57:33;;;;;;;12.73;9.67;;;-1.40;99.90;;;;;;5082563;28;20222;-67
2024/01/09 03:00:00;;;;;;;13.33;9.43;;;-1.00;99.90;;;;;;5085924;28;20252;-67
2024/01/09 03:02:27;;;;;;;15.40;10.40;;;-0.90;99.90;;;;;;5090807;28;20214;-67
2024/01/09 03:04:55;;;;;;;15.77;9.50;;;-1.00;99.90;;;;;;5081553;28;20257;-67
2024/01/09 03:07:22;;;;;;;15.13;9.67;;;-0.90;99.90;;;;;;5069676;28;20231;-68
2024/01/09 03:09:49;;;;;;;14.40;9.87;;;-1.10;99.90;;;;;;5077913;28;20257;-67
2024/01/09 03:12:16;;;;;;;15.80;10.13;;;-1.20;99.90;;;;;;5076591;28;20679;-67
2024/01/09 03:14:43;;;;;;;15.93;9.90;;;-1.30;99.90;;;;;;5081315;28;20200;-67
2024/01/09 03:17:10;;;;;;;17.17;11.47;;;-0.90;99.90;;;;;;5088713;28;20211;-67
2024/01/09 03:19:37;;;;;;;12.97;9.50;;;-0.90;99.90;;;;;;5071782;28;20204;-67
2024/01/09 03:22:09;;;;;;;15.23;11.03;;;-1.20;99.90;;;;;;5078682;28;20208;-68
2024/01/09 03:24:36;;;;;;;15.70;10.07;;;-1.20;99.90;;;;;;5088163;28;20226;-67
2024/01/09 03:27:08;;;;;;;15.53;10.20;;;-0.80;99.90;;;;;;5092547;28;20225;-67
2024/01/09 03:29:35;;;;;;;18.33;10.73;;;-0.90;99.90;;;;;;5092016;28;20260;-67
2024/01/09 03:32:02;;;;;;;14.30;9.57;;;-1.10;99.90;;;;;;5092623;28;20717;-67
2024/01/09 03:34:29;;;;;;;18.07;10.67;;;-1.20;99.90;;;;;;5082459;28;20261;-68
2024/01/09 03:36:56;;;;;;;13.73;9.47;;;-1.30;99.90;;;;;;5084032;28;20197;-67
2024/01/09 03:39:24;;;;;;;16.23;9.80;;;-0.90;99.90;;;;;;5092640;28;20203;-67
2024/01/09 03:41:52;;;;;;;16.90;11.33;;;-1.30;99.90;;;;;;5091948;28;20258;-68
2024/01/09 03:44:19;;;;;;;15.50;9.87;;;-1.40;99.90;;;;;;5091668;28;20564;-67
2024/01/09 03:46:46;;;;;;;16.87;10.17;;;-1.20;99.90;;;;;;5084326;28;20201;-68
2024/01/09 03:49:13;;;;;;;15.43;10.20;;;-1.20;99.90;;;;;;5083832;28;20226;-67
2024/01/09 03:51:40;;;;;;;15.60;10.13;;;-0.80;99.90;;;;;;5091931;28;20211;-67
2024/01/09 03:54:07;;;;;;;15.77;10.17;;;-1.20;99.90;;;;;;5089151;28;20204;-67
2024/01/09 03:56:35;;;;;;;13.73;10.83;;;-1.00;99.90;;;;;;5072253;28;20632;-67
2024/01/09 03:59:02;;;;;;;18.43;12.00;;;-1.10;99.90;;;;;;5074300;28;20227;-68
2024/01/09 04:01:29;;;;;;;16.63;11.10;;;-0.90;99.90;;;;;;5083102;28;20203;-67
2024/01/09 04:03:56;;;;;;;20.73;12.03;;;-1.00;99.90;;;;;;5090849;28;20730;-68
2024/01/09 04:06:23;;;;;;;15.63;10.73;;;-1.00;99.90;;;;;;5072583;28;20253;-67
2024/01/09 04:08:50;;;;;;;18.87;10.23;;;-1.00;99.90;;;;;;5071974;28;20231;-67
2024/01/09 04:11:18;;;;;;;19.70;11.73;;;-1.30;99.90;;;;;;5071436;28;20203;-67
2024/01/09 04:13:46;;;;;;;17.20;11.57;;;-1.00;99.90;;;;;;5080060;28;20288;-67
2024/01/09 04:16:14;;;;;;;17.13;9.93;;;-1.10;99.90;;;;;;5095298;28;20250;-67
2024/01/09 04:18:41;;;;;;;16.57;11.13;;;-1.00;99.90;;;;;;5095997;28;20278;-67
2024/01/09 04:21:08;;;;;;;18.80;11.47;;;-1.20;99.90;;;;;;5098629;28;20230;-68
2024/01/09 04:23:35;;;;;;;18.27;10.87;;;-1.10;99.90;;;;;;5095404;28;20644;-67
2024/01/09 04:26:02;;;;;;;17.57;11.17;;;-0.80;99.90;;;;;;5088404;28;20346;-68
2024/01/09 04:28:29;;;;;;;18.33;10.60;;;-1.10;99.90;;;;;;5099420;28;20228;-67
2024/01/09 04:30:57;;;;;;;16.40;10.97;;;-1.20;99.90;;;;;;5098393;28;20200;-68
2024/01/09 04:33:24;;;;;;;18.50;11.57;;;;;;;;;;5098185;28;20678;-68
2024/01/09 04:35:52;;;;;;;18.50;12.53;;;;;;;;;;5087707;28;20289;-67
2024/01/09 04:38:19;;;;;;;22.63;12.97;;;-1.30;99.90;;;;;;5083880;28;20265;-67
2024/01/09 04:40:46;;;;;;;18.23;12.10;;;-1.20;99.90;;;;;;5097119;28;20718;-68
2024/01/09 04:43:13;;;;;;;19.90;12.90;;;-1.00;99.90;;;;;;5092805;28;20278;-67
2024/01/09 04:45:40;;;;;;;14.70;10.60;;;-1.30;99.90;;;;;;5090382;28;20195;-67
2024/01/09 04:48:08;;;;;;;17.77;11.60;;;-1.00;99.90;;;;;;5095040;28;20224;-67
2024/01/09 04:50:35;;;;;;;18.90;11.67;;;-1.20;99.90;;;;;;5084250;28;20289;-68
2024/01/09 04:53:02;;;;;;;23.70;12.77;;;-1.10;99.90;;;;;;5084012;28;20602;-67
2024/01/09 04:55:29;;;;;;;17.47;10.83;;;-1.30;99.90;;;;;;5089103;28;20270;-68
2024/01/09 04:57:56;;;;;;;20.67;12.37;;;-0.90;99.90;;;;;;5084644;28;20647;-67
2024/01/09 05:00:23;;;;;;;17.63;12.27;;;-1.00;99.90;;;;;;5085758;28;20204;-67
2024/01/09 05:02:52;;;;;;;20.83;12.63;;;-1.10;99.90;;;;;;5080738;28;20210;-67
2024/01/09 05:05:21;;;;;;;23.30;13.97;;;-1.10;99.90;;;;;;5079641;28;20199;-67
2024/01/09 05:07:48;;;;;;;20.97;11.97;;;-1.30;99.90;;;;;;5079563;28;20227;-67
2024/01/09 05:10:15;;;;;;;22.60;12.53;;;-1.10;99.90;;;;;;5088928;28;20294;-67
2024/01/09 05:12:42;;;;;;;20.63;12.87;;;-1.00;99.90;;;;;;5084257;28;20211;-69
2024/01/09 05:15:10;;;;;;;20.87;13.00;;;-1.00;99.90;;;;;;5081702;28;20260;-67
2024/01/09 05:17:38;;;;;;;20.43;12.00;;;-1.20;99.90;;;;;;5077687;28;20229;-67
2024/01/09 05:20:06;;;;;;;18.77;12.53;;;;;;;;;;5085717;28;20199;-67
2024/01/09 05:22:35;;;;;;;21.00;12.13;;;-1.40;99.90;;;;;;5088250;28;20216;-67
2024/01/09 05:25:03;;;;;;;16.73;11.70;;;-1.40;99.90;;;;;;5080308;28;20656;-67
2024/01/09 05:27:30;;;;;;;21.10;12.33;;;-1.10;99.90;;;;;;5077723;28;20274;-66
2024/01/09 05:29:57;;;;;;;20.43;12.53;;;-1.20;99.90;;;;;;5086751;28;20662;-67
2024/01/09 05:32:24;;;;;;;23.77;12.73;;;-1.20;99.90;;;;;;5083103;28;20627;-67
2024/01/09 05:34:51;;;;;;;21.17;12.43;;;-1.30;99.90;;;;;;5074237;28;20210;-67
2024/01/09 05:37:18;;;;;;;19.80;12.60;;;-1.30;99.90;;;;;;5075065;28;20310;-67
2024/01/09 05:39:47;;;;;;;20.30;11.83;;;-1.40;99.90;;;;;;5081842;28;20261;-67
2024/01/09 05:42:14;;;;;;;19.50;11.97;;;-1.30;99.90;;;;;;5082519;28;20206;-67
2024/01/09 05:44:41;;;;;;;18.13;11.57;;;-1.30;99.90;;;;;;5074062;28;20213;-67
2024/01/09 05:47:08;;;;;;;16.40;12.30;;;-1.20;99.90;;;;;;5074180;28;20256;-67
2024/01/09 05:49:35;;;;;;;20.13;12.40;;;-1.30;99.90;;;;;;5073101;28;20226;-67
2024/01/09 05:52:05;;;;;;;19.93;11.47;;;-1.00;99.90;;;;;;5074089;28;20256;-67
2024/01/09 05:54:32;;;;;;;20.13;12.50;;;-1.00;99.90;;;;;;5079116;28;20237;-67
2024/01/09 05:57:04;;;;;;;21.43;12.37;;;-1.20;99.90;;;;;;5082230;28;20202;-68
2024/01/09 05:59:31;;;;;;;27.47;13.70;;;-1.30;99.90;;;;;;5082081;28;20269;-68
2024/01/09 06:01:58;;;;;;;21.33;13.00;;;-1.40;99.90;;;;;;5074876;28;20208;-67
2024/01/09 06:04:25;;;;;;;20.17;12.30;;;-1.20;99.90;;;;;;5082618;28;20211;-68
2024/01/09 06:06:52;;;;;;;19.37;12.53;;;-1.40;99.90;;;;;;5085964;28;20250;-66
2024/01/09 06:09:19;;;;;;;17.07;11.83;;;-1.20;99.90;;;;;;5085969;28;20775;-67
2024/01/09 06:11:46;;;;;;;21.90;11.83;;;-1.10;99.90;;;;;;5084050;28;20742;-66
2024/01/09 06:14:15;;;;;;;23.27;13.07;;;-1.40;99.90;;;;;;5082397;28;20218;-68
2024/01/09 06:16:41;;;;;;;18.53;12.37;;;-0.90;99.90;;;;;;5075010;28;20672;-67
2024/01/09 06:19:09;;;;;;;20.73;12.73;;;-1.00;99.90;;;;;;5082810;28;20269;-67
2024/01/09 06:21:36;;;;;;;18.93;11.03;;;-1.10;99.90;;;;;;5081484;28;20283;-68
2024/01/09 06:24:03;;;;;;;18.10;11.60;;;-1.10;99.90;;;;;;5079541;28;20628;-67
2024/01/09 06:26:30;;;;;;;19.53;12.83;;;-1.10;99.90;;;;;;5076286;28;20562;-67
2024/01/09 06:28:58;;;;;;;21.07;11.40;;;-1.10;99.90;;;;;;5079925;28;20312;-68
2024/01/09 06:31:27;;;;;;;21.83;12.90;;;-1.20;99.90;;;;;;5076254;28;20206;-67
2024/01/09 06:33:53;;;;;;;19.93;11.47;;;-1.10;99.90;;;;;;5072547;28;20207;-68
2024/01/09 06:36:21;;;;;;;22.07;13.03;;;-1.50;99.90;;;;;;5073815;28;20206;-67
2024/01/09 06:38:48;;;;;;;21.83;14.35;;;-1.20;99.90;;;;;;5079698;28;20431;-65
2024/01/09 06:41:15;;;;;;;18.63;11.97;;;-1.00;99.90;;;;;;5082112;28;20207;-66
2024/01/09 06:43:42;;;;;;;20.27;12.17;;;-1.40;99.90;;;;;;5076009;28;20250;-70
2024/01/09 06:46:09;;;;;;;19.50;12.67;;;-1.40;99.90;;;;;;5075846;28;20558;-70
2024/01/09 06:48:37;;;;;;;18.60;12.00;;;-1.40;99.90;;;;;;5072742;28;20231;-70
2024/01/09 06:51:05;;;;;;;22.47;13.53;;;-1.00;99.90;;;;;;5083275;28;20725;-72
2024/01/09 06:53:32;;;;;;;20.80;11.40;;;-1.00;99.90;;;;;;5077187;28;20236;-71
2024/01/09 06:56:01;;;;;;;20.50;12.73;;;-1.00;99.90;;;;;;5082540;28;20266;-65
2024/01/09 06:58:28;;;;;;;18.17;11.90;;;-0.90;99.90;;;;;;5078507;28;20954;-67
2024/01/09 07:00:55;;;;;;;21.23;12.30;;;-1.10;99.90;;;;;;5078389;28;20208;-64
2024/01/09 07:03:21;;;;;;;20.97;12.80;;;-1.30;99.90;;;;;;5081206;28;20254;-66
2024/01/09 07:05:50;;;;;;;17.00;11.90;;;-1.10;99.90;;;;;;5073565;28;20197;-66
2024/01/09 07:08:18;;;;;;;20.90;11.80;;;-1.00;99.90;;;;;;5081497;28;20649;-66
2024/01/09 07:10:45;;;;;;;23.17;12.13;;;;;;;;;;5078995;28;20745;-66
2024/01/09 07:13:12;;;;;;;18.93;12.83;;;;;;;;;;5078914;28;20237;-67
2024/01/09 07:15:39;;;;;;;20.73;13.87;;;-1.00;99.90;;;;;;5076690;28;20628;-68
2024/01/09 07:18:06;;;;;;;22.57;13.20;;;-1.20;99.90;;;;;;5080163;28;20216;-66
2024/01/09 07:20:33;;;;;;;17.43;11.33;;;;;;;;;;5079433;28;20211;-67
2024/01/09 07:23:02;;;;;;;22.40;14.40;;;-1.30;99.90;;;;;;5084884;28;20202;-70
2024/01/09 07:25:29;;;;;;;19.33;12.20;;;-1.30;99.90;;;;;;5071977;28;20202;-72
2024/01/09 07:27:56;;;;;;;19.43;12.80;;;-1.00;99.90;;;;;;5084002;28;20694;-73
2024/01/09 07:30:23;;;;;;;23.10;12.47;;;-1.00;99.90;;;;;;5074195;28;20202;-72
2024/01/09 07:32:50;;;;;;;24.20;13.63;;;-1.10;99.90;;;;;;5072297;28;20298;-71
2024/01/09 07:35:17;;;;;;;21.70;12.53;;;-1.20;99.90;;;;;;5087637;28;20198;-71
2024/01/09 07:37:44;;;;;;;21.83;13.07;;;-1.30;99.90;;;;;;5088620;28;20358;-69
2024/01/09 07:40:13;;;;;;;25.53;14.43;;;-1.20;99.90;;;;;;5085408;28;20200;-70
2024/01/09 07:42:40;;;;;;;23.03;13.10;;;-1.20;99.90;;;;;;5071897;28;20207;-71
2024/01/09 07:45:11;;;;;;;25.67;14.17;;;-1.30;99.90;;;;;;5072185;28;20223;-69
2024/01/09 07:47:38;;;;;;;25.83;13.77;;;-1.00;99.90;;;;;;5071782;28;20308;-70
2024/01/09 07:50:06;;;;;;;23.47;14.00;;;-1.10;99.90;;;;;;5085163;22;20322;-67
2024/01/09 07:52:33;;;;;;;23.90;12.17;;;-1.10;99.90;;;;;;5069770;28;20265;-70
2024/01/09 07:55:00;;;;;;;24.37;14.07;;;-0.90;99.90;;;;;;5064292;28;20241;-67
2024/01/09 07:57:29;;;;;;;24.33;13.87;;;-1.30;99.90;;;;;;5058091;28;20266;-67
2024/01/09 07:59:56;;;;;;;24.17;13.80;;;-0.90;99.90;;;;;;5063257;28;20219;-65
2024/01/09 08:02:23;;;;;;;30.30;15.10;;;-0.90;99.90;;;;;;5083706;28;20199;-69
2024/01/09 08:04:50;;;;;;;20.90;13.17;;;-1.00;99.90;;;;;;5083311;28;20206;-69
2024/01/09 08:07:17;;;;;;;22.67;13.93;;;-1.30;99.90;;;;;;5083142;28;20247;-70
2024/01/09 08:09:44;;;;;;;24.30;13.60;;;-0.90;99.90;;;;;;5070208;28;20287;-71
2024/01/09 08:12:11;;;;;;;25.03;14.13;;;-0.90;99.90;;;;;;5061419;28;20209;-70
2024/01/09 08:14:39;;;;;;;26.70;14.97;;;-1.10;99.90;;;;;;5064580;28;20206;-69
2024/01/09 08:17:06;;;;;;;26.23;13.97;;;-1.00;99.90;;;;;;5050655;28;20207;-66
2024/01/09 08:19:33;;;;;;;20.70;13.70;;;-1.10;99.90;;;;;;5067917;28;20254;-71
2024/01/09 08:22:04;;;;;;;22.67;14.10;;;-0.70;99.90;;;;;;5070701;28;20268;-64
2024/01/09 08:24:32;;;;;;;23.23;15.20;;;-1.20;99.90;;;;;;5073324;28;20586;-69
2024/01/09 08:26:59;;;;;;;21.00;14.10;;;-1.20;99.90;;;;;;5087930;28;20198;-72
2024/01/09 08:29:27;;;;;;;26.53;14.97;;;-1.00;99.90;;;;;;5086318;28;20222;-72
2024/01/09 08:31:55;;;;;;;28.43;14.33;;;-1.10;99.90;;;;;;5068844;28;20220;-68
2024/01/09 08:34:22;;;;;;;27.50;15.23;;;-0.80;99.90;;;;;;5062537;28;20199;-61
2024/01/09 08:36:49;;;;;;;26.65;17.08;;;-1.10;99.90;;;;;;5056167;28;20504;-61
2024/01/09 08:39:16;;;;;;;27.40;14.77;;;-0.90;99.90;;;;;;5062503;28;20206;-60
2024/01/09 08:41:43;;;;;;;29.97;16.30;;;-1.10;99.90;;;;;;5065645;28;20250;-61
2024/01/09 08:44:10;;;;;;;23.27;13.80;;;-1.10;99.90;;;;;;5064204;28;20248;-60
2024/01/09 08:46:37;;;;;;;22.57;14.43;;;-0.70;99.90;;;;;;5059878;28;20207;-61
2024/01/09 08:49:06;;;;;;;26.33;14.70;;;-0.80;99.90;;;;;;5070436;28;20216;-61
2024/01/09 08:51:33;;;;;;;21.43;13.00;;;-0.90;99.90;;;;;;5068986;28;20284;-61
2024/01/09 08:54:00;;;;;;;25.30;13.47;;;-1.00;99.90;;;;;;5062164;28;20194;-61
2024/01/09 08:56:27;;;;;;;25.43;13.73;;;-0.70;99.90;;;;;;5069434;28;20265;-60
2024/01/09 08:58:53;;;;;;;24.67;13.90;;;-1.00;99.90;;;;;;5059230;28;20203;-61
2024/01/09 09:01:21;;;;;;;21.67;13.00;;;-1.10;99.90;;;;;;5049635;28;20637;-60
2024/01/09 09:03:48;;;;;;;22.90;13.50;;;-0.80;99.90;;;;;;5057844;28;20361;-61
2024/01/09 09:06:17;;;;;;;30.43;15.73;;;-0.90;99.90;;;;;;5058114;28;20693;-61
2024/01/09 09:08:44;;;;;;;27.50;14.07;;;-0.80;99.90;;;;;;5056344;28;20296;-61
2024/01/09 09:11:14;;;;;;;22.93;13.43;;;-0.80;99.90;;;;;;5059175;28;20289;-61
2024/01/09 09:13:41;;;;;;;21.23;13.93;;;-0.90;99.90;;;;;;5054210;28;20210;-61
2024/01/09 09:16:08;;;;;;;27.77;15.17;;;-0.80;99.90;;;;;;5061593;28;20205;-61
2024/01/09 09:18:35;;;;;;;28.27;14.77;;;-0.80;99.90;;;;;;5055205;28;20724;-61
2024/01/09 09:21:03;;;;;;;25.60;13.80;;;-0.80;99.90;;;;;;5072373;28;20755;-61
2024/01/09 09:23:33;;;;;;;23.17;12.50;;;-0.70;99.90;;;;;;5054610;28;20285;-60
2024/01/09 09:26:00;;;;;;;22.63;13.13;;;-0.90;99.90;;;;;;5058808;28;20203;-61
2024/01/09 09:28:27;;;;;;;24.53;14.20;;;-0.90;99.90;;;;;;5055009;28;20266;-59
2024/01/09 09:30:54;;;;;;;26.77;13.50;;;-0.60;99.90;;;;;;5052819;28;20925;-64
2024/01/09 09:33:21;;;;;;;25.57;14.17;;;-0.70;99.90;;;;;;5061149;28;20212;-61
2024/01/09 09:35:48;;;;;;;25.63;15.40;;;-0.70;99.90;;;;;;5059003;28;20206;-61
2024/01/09 09:38:16;;;;;;;22.30;13.63;;;-0.70;99.90;;;;;;5054837;28;20205;-61
2024/01/09 09:40:44;;;;;;;28.90;14.33;;;-0.50;99.90;;;;;;5053296;28;20248;-61
2024/01/09 09:43:16;;;;;;;23.13;14.23;;;-0.50;99.90;;;;;;5059925;28;20206;-61
2024/01/09 09:45:44;;;;;;;24.07;13.70;;;-0.40;99.90;;;;;;5054754;28;20207;-61
2024/01/09 09:48:16;;;;;;;21.70;13.10;;;-0.40;99.90;;;;;;5057065;28;20272;-61
2024/01/09 09:50:44;;;;;;;25.43;14.80;;;-0.40;99.90;;;;;;5072225;28;20234;-62
2024/01/09 09:53:12;;;;;;;27.30;14.90;;;-0.40;99.90;;;;;;5060080;28;20193;-61
2024/01/09 09:55:40;;;;;;;22.20;13.43;;;-0.40;99.90;;;;;;5055598;28;20199;-61
2024/01/09 09:58:08;;;;;;;24.20;13.80;;;-0.40;99.90;;;;;;5058870;28;20812;-61
2024/01/09 10:00:35;;;;;;;24.83;15.10;;;-0.50;99.90;;;;;;5070910;28;20266;-61
2024/01/09 10:03:05;;;;;;;28.17;14.93;;;-0.40;99.90;;;;;;5052816;28;20204;-61
2024/01/09 10:05:35;;;;;;;27.83;15.60;;;-0.40;99.90;;;;;;5052819;28;20701;-61
2024/01/09 10:08:03;;;;;;;23.47;14.60;;;-0.40;99.90;;;;;;5053380;28;20204;-60
2024/01/09 10:10:30;;;;;;;30.73;15.10;;;-0.20;99.90;;;;;;5052268;28;20232;-60
2024/01/09 10:12:58;;;;;;;26.00;14.43;;;-0.20;99.90;;;;;;5053569;28;20204;-60
2024/01/09 10:15:26;;;;;;;24.97;14.87;;;-0.20;99.90;;;;;;5060254;28;20203;-61
2024/01/09 10:17:53;;;;;;;26.73;15.70;;;-0.10;99.90;;;;;;5083732;28;20208;-61
2024/01/09 10:20:20;;;;;;;24.13;13.37;;;-0.10;99.90;;;;;;5073926;28;20269;-61
2024/01/09 10:22:48;;;;;;;24.50;13.83;;;0.00;99.90;;;;;;5072356;28;20206;-60
2024/01/09 10:25:17;;;;;;;26.00;14.93;;;0.00;99.90;;;;;;5055552;28;20582;-63
2024/01/09 10:27:44;;;;;;;23.50;14.33;;;0.00;99.90;;;;;;5069310;28;20296;-65
2024/01/09 10:30:12;;;;;;;23.07;14.70;;;0.00;99.90;;;;;;5066373;28;20727;-64
2024/01/09 10:32:41;;;;;;;26.83;14.10;;;-0.30;99.90;;;;;;5065426;28;20233;-65
2024/01/09 10:35:09;;;;;;;24.33;13.57;;;-0.10;99.90;;;;;;5072138;28;20370;-66
2024/01/09 10:37:37;;;;;;;27.10;14.20;;;-0.20;99.90;;;;;;5072057;28;20215;-62
2024/01/09 10:40:05;;;;;;;26.57;14.73;;;-0.20;99.90;;;;;;5070955;28;20222;-66
2024/01/09 10:42:44;;;;;;;30.13;16.17;;;-0.20;99.90;;;;;;5071772;28;20242;-67
2024/01/09 10:45:11;;;;;;;23.50;13.87;;;-0.10;99.90;;;;;;5072474;28;20208;-61
2024/01/09 10:47:40;;;;;;;23.80;13.97;;;0.10;99.90;;;;;;5071738;28;20737;-66
2024/01/09 10:50:10;;;;;;;25.93;15.63;;;-0.10;99.90;;;;;;5067352;28;20230;-71
2024/01/09 10:52:38;;;;;;;21.43;13.90;;;-0.10;99.90;;;;;;5066624;28;20203;-68
2024/01/09 10:55:06;;;;;;;24.83;15.20;;;0.00;99.90;;;;;;5052090;28;20269;-67
2024/01/09 10:57:35;;;;;;;27.53;15.10;;;0.00;99.90;;;;;;5052320;28;20284;-67
2024/01/09 11:00:08;;;;;;;26.03;14.87;;;0.10;99.90;;;;;;5051285;28;20226;-67
2024/01/09 11:02:36;;;;;;;26.87;14.03;;;0.00;99.90;;;;;;5051747;28;20608;-64
2024/01/09 11:05:04;;;;;;;24.63;13.93;;;;;;;;;;5055819;28;20237;-64
2024/01/09 11:07:32;;;;;;;25.37;14.57;;;;;;;;;;5052707;28;20255;-63
2024/01/09 11:10:00;;;;;;;22.40;13.43;;;;;;;;;;5058528;28;20697;-65
2024/01/09 11:12:30;;;;;;;25.67;14.47;;;;;;;;;;5060256;28;20265;-66
2024/01/09 11:14:59;;;;;;;26.73;15.67;;;;;;;;;;5063787;28;20279;-64
2024/01/09 11:17:26;;;;;;;24.67;13.97;;;0.30;99.90;;;;;;5066628;28;20667;-65
2024/01/09 11:19:54;;;;;;;23.27;13.67;;;0.50;99.90;;;;;;5065754;28;20224;-70
2024/01/09 11:22:22;;;;;;;26.00;13.83;;;0.50;99.90;;;;;;5064685;28;20213;-63
2024/01/09 11:24:56;;;;;;;25.07;14.67;;;0.40;99.90;;;;;;5066451;28;20265;-67
2024/01/09 11:27:23;;;;;;;25.23;14.20;;;0.30;99.90;;;;;;5068671;28;20223;-64
2024/01/09 11:29:52;;;;;;;30.80;15.77;;;0.30;99.90;;;;;;5057292;28;20567;-59
2024/01/09 11:32:24;;;;;;;28.83;13.87;;;0.10;99.90;;;;;;5056682;28;20694;-59
2024/01/09 11:35:09;;;;;;;27.90;15.40;;;0.30;99.90;;;;;;5066862;28;20268;-59
2024/01/09 11:37:39;;;;;;;26.17;14.50;;;0.00;99.90;;;;;;5073094;28;20198;-60
2024/01/09 11:40:09;;;;;;;27.27;14.93;;;0.10;99.90;;;;;;5067936;28;20258;-63
2024/01/09 11:42:37;;;;;;;28.07;15.43;;;0.20;99.90;;;;;;5067957;28;20823;-59
2024/01/09 11:45:07;;;;;;;29.33;15.53;;;0.30;99.90;;;;;;5071201;28;20203;-60
2024/01/09 11:47:38;;;;;;;27.57;15.27;;;0.30;99.90;;;;;;5071437;28;20586;-60
2024/01/09 11:50:07;;;;;;;24.15;15.43;;;0.30;99.90;;;;;;5064781;28;20486;-59
2024/01/09 11:52:35;;;;;;;27.40;14.67;;;0.30;99.90;;;;;;5058637;28;20232;-61
2024/01/09 11:55:05;;;;;;;26.00;14.17;;;0.30;99.90;;;;;;5051085;28;20248;-64
2024/01/09 11:57:33;;;;;;;25.33;13.70;;;0.50;99.90;;;;;;5051275;28;20210;-64
2024/01/09 12:00:02;;;;;;;22.87;14.13;;;0.40;99.90;;;;;;5063666;28;20209;-65
2024/01/09 12:02:28;;;;;;;20.97;14.17;;;0.50;99.90;;;;;;5070669;28;20203;-66
2024/01/09 12:04:56;;;;;;;27.13;15.70;;;0.60;99.90;;;;;;5070135;28;20254;-66
2024/01/09 12:07:23;;;;;;;24.57;15.43;;;0.60;99.90;;;;;;5074226;28;20210;-65
2024/01/09 12:09:50;;;;;;;30.03;15.97;;;0.70;99.90;;;;;;5083396;28;20847;-66
2024/01/09 12:12:24;;;;;;;24.47;14.47;;;0.70;99.90;;;;;;5064448;28;20670;-67
2024/01/09 12:14:52;;;;;;;28.17;14.70;;;0.50;99.90;;;;;;5053373;28;20203;-64
2024/01/09 12:17:22;;;;;;;28.80;15.93;;;0.30;99.90;;;;;;5054804;28;20557;-64
2024/01/09 12:19:51;;;;;;;24.43;13.00;;;0.40;99.90;;;;;;5050038;28;20221;-64
2024/01/09 12:22:19;;;;;;;21.57;13.63;;;0.40;99.90;;;;;;5061476;28;20200;-65
2024/01/09 12:24:46;;;;;;;23.50;14.20;;;0.50;99.90;;;;;;5052014;28;20226;-64
2024/01/09 12:27:14;;;;;;;25.37;13.60;;;;;;;;;;5052877;28;20208;-64
2024/01/09 12:29:44;;;;;;;21.93;14.80;;;0.30;99.90;;;;;;5049937;28;20285;-65
2024/01/09 12:32:12;;;;;;;23.20;13.47;;;0.40;99.90;;;;;;5050658;28;20230;-65
2024/01/09 12:34:40;;;;;;;24.17;13.67;;;0.40;99.90;;;;;;5069541;28;20230;-65